createdAt,value
2024-01-24T00:02:21.928Z,77.71
2024-01-24T00:04:48.833Z,77.73
2024-01-24T00:07:16.092Z,77.63
2024-01-24T00:09:45.638Z,77.50
2024-01-24T00:12:15.949Z,77.70
2024-01-24T00:14:48.704Z,77.64
2024-01-24T00:17:15.626Z,78.15
2024-01-24T00:19:42.616Z,78.43
2024-01-24T00:22:12.589Z,78.22
2024-01-24T00:24:39.463Z,77.92
2024-01-24T00:27:06.715Z,77.59
2024-01-24T00:29:33.630Z,77.66
2024-01-24T00:32:00.606Z,77.64
2024-01-24T00:34:27.490Z,78.20
2024-01-24T00:36:54.493Z,77.95
2024-01-24T00:39:21.703Z,77.99
2024-01-24T00:41:48.652Z,78.26
2024-01-24T00:44:16.019Z,78.19
2024-01-24T00:46:42.850Z,78.28
2024-01-24T00:49:11.124Z,78.10
2024-01-24T00:51:38.383Z,77.84
2024-01-24T00:54:15.175Z,78.02
2024-01-24T00:56:42.095Z,77.79
2024-01-24T00:59:09.593Z,77.61
2024-01-24T01:01:36.507Z,77.39
2024-01-24T01:04:05.069Z,77.08
2024-01-24T01:06:32.353Z,77.27
2024-01-24T01:09:01.947Z,77.31
2024-01-24T01:11:28.942Z,77.23
2024-01-24T01:13:55.897Z,77.13
2024-01-24T01:16:22.886Z,77.02
2024-01-24T01:18:49.884Z,76.84
2024-01-24T01:21:16.803Z,77.04
2024-01-24T01:23:43.744Z,77.20
2024-01-24T01:26:10.612Z,77.86
2024-01-24T01:28:37.431Z,78.00
2024-01-24T01:31:04.393Z,77.68
2024-01-24T01:33:31.426Z,77.68
2024-01-24T01:36:09.117Z,77.81
2024-01-24T01:38:44.678Z,77.92
2024-01-24T01:41:11.655Z,77.89
2024-01-24T01:43:38.754Z,78.48
2024-01-24T01:46:11.630Z,78.81
2024-01-24T01:48:39.362Z,78.62
2024-01-24T01:51:07.077Z,78.57
2024-01-24T01:53:39.942Z,78.49
2024-01-24T01:56:13.442Z,78.07
2024-01-24T01:58:42.035Z,77.63
2024-01-24T02:01:09.843Z,77.66
2024-01-24T02:03:45.174Z,77.61
2024-01-24T02:06:12.401Z,77.48
2024-01-24T02:08:41.040Z,77.02
2024-01-24T02:11:08.268Z,76.70
2024-01-24T02:13:35.188Z,76.62
2024-01-24T02:16:04.845Z,76.72
2024-01-24T02:18:32.021Z,76.62
2024-01-24T02:20:59.252Z,76.29
2024-01-24T02:23:27.809Z,76.31
2024-01-24T02:25:55.033Z,75.82
2024-01-24T02:28:22.073Z,75.88
2024-01-24T02:30:49.167Z,75.85
2024-01-24T02:33:16.417Z,75.79
2024-01-24T02:35:43.620Z,75.51
2024-01-24T02:38:10.576Z,75.62
2024-01-24T02:40:37.685Z,75.81
2024-01-24T02:43:04.949Z,75.55
2024-01-24T02:45:32.012Z,75.55
2024-01-24T02:47:58.959Z,75.72
2024-01-24T02:50:25.888Z,75.75
2024-01-24T02:52:52.808Z,75.80
2024-01-24T02:55:19.908Z,75.75
2024-01-24T02:57:46.890Z,75.75
2024-01-24T03:00:14.540Z,75.72
2024-01-24T03:02:41.672Z,75.67
2024-01-24T03:05:11.668Z,75.52
2024-01-24T03:07:39.422Z,75.56
2024-01-24T03:10:07.228Z,75.46
2024-01-24T03:12:34.344Z,75.52
2024-01-24T03:15:01.284Z,75.54
2024-01-24T03:17:28.284Z,75.59
2024-01-24T03:19:56.129Z,75.50
2024-01-24T03:22:26.377Z,75.15
2024-01-24T03:24:53.956Z,75.20
2024-01-24T03:27:20.993Z,74.79
2024-01-24T03:29:47.959Z,74.71
2024-01-24T03:32:14.789Z,74.66
2024-01-24T03:34:41.846Z,74.51
2024-01-24T03:37:08.739Z,74.86
2024-01-24T03:39:37.462Z,74.76
2024-01-24T03:42:05.032Z,75.07
2024-01-24T03:44:31.998Z,75.04
2024-01-24T03:46:59.153Z,75.38
2024-01-24T03:49:26.205Z,75.23
2024-01-24T03:51:53.331Z,75.38
2024-01-24T03:54:21.128Z,75.17
2024-01-24T03:56:48.235Z,74.99
2024-01-24T03:59:17.116Z,75.36
2024-01-24T04:01:44.109Z,75.23
2024-01-24T04:04:11.143Z,75.44
2024-01-24T04:06:38.204Z,75.53
2024-01-24T04:09:05.259Z,75.85
2024-01-24T04:11:32.185Z,76.07
2024-01-24T04:13:59.037Z,76.49
2024-01-24T04:16:25.929Z,76.25
2024-01-24T04:18:52.976Z,76.51
2024-01-24T04:21:19.968Z,77.67
2024-01-24T04:23:46.908Z,77.53
2024-01-24T04:26:13.856Z,77.79
2024-01-24T04:28:40.727Z,78.17
2024-01-24T04:31:07.670Z,77.87
2024-01-24T04:33:34.706Z,78.08
2024-01-24T04:36:02.567Z,77.92
2024-01-24T04:38:29.468Z,77.85
2024-01-24T04:40:57.602Z,78.28
2024-01-24T04:43:24.555Z,78.93
2024-01-24T04:45:52.026Z,78.76
2024-01-24T04:48:19.143Z,78.69
2024-01-24T04:50:46.172Z,78.91
2024-01-24T04:53:13.098Z,79.23
2024-01-24T04:55:39.940Z,79.08
2024-01-24T04:58:06.872Z,79.06
2024-01-24T05:00:33.854Z,78.90
2024-01-24T05:03:01.473Z,78.82
2024-01-24T05:05:28.610Z,78.96
2024-01-24T05:07:55.907Z,79.47
2024-01-24T05:10:22.868Z,79.43
2024-01-24T05:12:49.876Z,79.53
2024-01-24T05:15:16.812Z,79.29
2024-01-24T05:17:43.864Z,79.20
2024-01-24T05:20:12.291Z,79.01
2024-01-24T05:22:39.330Z,78.54
2024-01-24T05:25:06.645Z,78.71
2024-01-24T05:27:33.490Z,78.64
2024-01-24T05:30:08.975Z,78.97
2024-01-24T05:32:42.999Z,79.53
2024-01-24T05:35:10.044Z,79.54
2024-01-24T05:37:37.068Z,79.65
2024-01-24T05:40:05.202Z,79.80
2024-01-24T05:42:32.295Z,79.92
2024-01-24T05:44:59.261Z,79.94
2024-01-24T05:47:26.262Z,79.96
2024-01-24T05:49:53.163Z,79.45
2024-01-24T05:52:20.147Z,79.55
2024-01-24T05:54:47.066Z,79.24
2024-01-24T05:57:13.995Z,79.61
2024-01-24T05:59:40.937Z,79.42
2024-01-24T06:02:07.954Z,79.19
2024-01-24T06:04:35.019Z,79.13
2024-01-24T06:07:02.933Z,78.83
2024-01-24T06:09:29.967Z,78.75
2024-01-24T06:11:57.150Z,79.49
2024-01-24T06:14:24.099Z,80.17
2024-01-24T06:16:51.988Z,80.46
2024-01-24T06:19:21.587Z,80.05
2024-01-24T06:21:48.540Z,80.79
2024-01-24T06:24:15.480Z,81.16
2024-01-24T06:26:42.447Z,80.89
2024-01-24T06:29:09.575Z,80.45
2024-01-24T06:31:36.525Z,79.82
2024-01-24T06:34:03.756Z,79.50
2024-01-24T06:36:30.763Z,79.27
2024-01-24T06:38:57.700Z,79.40
2024-01-24T06:41:24.631Z,79.28
2024-01-24T06:43:52.108Z,79.26
2024-01-24T06:46:19.235Z,79.74
2024-01-24T06:48:46.213Z,79.62
2024-01-24T06:51:14.545Z,79.35
2024-01-24T06:53:41.537Z,78.94
2024-01-24T06:56:09.862Z,79.00
2024-01-24T06:58:38.863Z,79.18
2024-01-24T07:01:06.051Z,79.18
2024-01-24T07:03:33.221Z,78.80
2024-01-24T07:06:00.400Z,78.52
2024-01-24T07:08:27.307Z,78.65
2024-01-24T07:10:54.302Z,79.07
2024-01-24T07:13:21.179Z,79.25
2024-01-24T07:15:48.315Z,79.56
2024-01-24T07:18:15.330Z,80.13
2024-01-24T07:20:42.459Z,80.49
2024-01-24T07:23:09.634Z,80.94
2024-01-24T07:25:36.516Z,80.61
2024-01-24T07:28:03.503Z,80.53
2024-01-24T07:30:30.519Z,80.03
2024-01-24T07:32:57.480Z,79.30
2024-01-24T07:35:24.467Z,78.80
2024-01-24T07:37:51.624Z,78.87
2024-01-24T07:40:18.538Z,79.16
2024-01-24T07:42:45.471Z,78.72
2024-01-24T07:45:12.482Z,78.37
2024-01-24T07:47:40.325Z,78.49
2024-01-24T07:50:08.371Z,78.30
2024-01-24T07:52:40.937Z,78.14
2024-01-24T07:55:11.112Z,77.65
2024-01-24T07:57:38.954Z,77.55
2024-01-24T08:00:07.465Z,76.77
2024-01-24T08:02:35.120Z,76.13
2024-01-24T08:05:02.284Z,75.85
2024-01-24T08:07:31.577Z,76.09
2024-01-24T08:09:58.626Z,75.95
2024-01-24T08:12:25.697Z,76.11
2024-01-24T08:14:52.774Z,76.72
2024-01-24T08:17:21.055Z,76.58
2024-01-24T08:19:49.990Z,76.46
2024-01-24T08:22:17.087Z,76.47
2024-01-24T08:24:45.588Z,76.13
2024-01-24T08:27:12.843Z,75.05
2024-01-24T08:29:39.864Z,75.23
2024-01-24T08:32:07.429Z,74.98
2024-01-24T08:34:37.173Z,74.79
2024-01-24T08:37:05.264Z,74.53
2024-01-24T08:39:33.615Z,74.18
2024-01-24T08:42:01.657Z,73.64
2024-01-24T08:44:28.694Z,73.11
2024-01-24T08:46:55.714Z,72.79
2024-01-24T08:49:22.649Z,72.56
2024-01-24T08:51:49.726Z,72.05
2024-01-24T08:54:17.482Z,72.03
2024-01-24T08:56:44.758Z,71.62
2024-01-24T08:59:12.444Z,71.32
2024-01-24T09:01:39.554Z,71.26
2024-01-24T09:04:06.798Z,70.64
2024-01-24T09:06:34.016Z,70.30
2024-01-24T09:09:01.117Z,69.92
2024-01-24T09:11:34.419Z,69.34
2024-01-24T09:14:05.406Z,68.72
2024-01-24T09:16:32.739Z,68.53
2024-01-24T09:18:59.930Z,68.16
2024-01-24T09:21:27.162Z,67.39
2024-01-24T09:23:54.328Z,67.05
2024-01-24T09:26:21.451Z,67.01
2024-01-24T09:28:48.398Z,66.49
2024-01-24T09:31:16.016Z,66.49
2024-01-24T09:33:43.203Z,66.74
2024-01-24T09:36:11.119Z,66.65
2024-01-24T09:38:38.014Z,66.79
2024-01-24T09:41:14.963Z,66.66
2024-01-24T09:43:42.530Z,66.60
2024-01-24T09:46:13.696Z,66.24
2024-01-24T09:48:42.884Z,65.99
2024-01-24T09:51:10.709Z,65.92
2024-01-24T09:53:39.963Z,65.67
2024-01-24T09:56:08.917Z,65.54
2024-01-24T09:58:35.781Z,65.57
2024-01-24T10:01:05.779Z,65.60
2024-01-24T10:03:36.768Z,65.79
2024-01-24T10:06:09.145Z,65.44
2024-01-24T10:08:36.118Z,65.44
2024-01-24T10:11:03.075Z,65.49
2024-01-24T10:13:31.626Z,64.89
2024-01-24T10:16:01.008Z,64.75
2024-01-24T10:18:28.254Z,64.51
2024-01-24T10:20:55.318Z,64.54
2024-01-24T10:23:22.790Z,64.12
2024-01-24T10:25:49.863Z,63.94
2024-01-24T10:28:18.331Z,64.27
2024-01-24T10:30:47.854Z,63.84
2024-01-24T10:33:16.597Z,63.09
2024-01-24T10:35:45.102Z,62.98
2024-01-24T10:38:13.166Z,62.67
2024-01-24T10:40:41.614Z,62.05
2024-01-24T10:43:13.967Z,61.83
2024-01-24T10:45:49.641Z,61.16
2024-01-24T10:48:18.390Z,60.43
2024-01-24T10:50:46.231Z,60.31
2024-01-24T10:53:14.704Z,60.19
2024-01-24T10:55:42.671Z,60.00
2024-01-24T10:58:13.276Z,60.13
2024-01-24T11:00:42.507Z,59.09
2024-01-24T11:03:09.628Z,58.99
2024-01-24T11:05:48.250Z,58.69
2024-01-24T11:08:36.341Z,58.95
2024-01-24T11:11:14.649Z,58.74
2024-01-24T11:13:43.853Z,58.12
2024-01-24T11:16:26.521Z,58.09
2024-01-24T11:19:00.588Z,58.35
2024-01-24T11:21:33.438Z,58.53
2024-01-24T11:24:00.812Z,58.61
2024-01-24T11:26:27.727Z,58.65
2024-01-24T11:29:16.834Z,58.62
2024-01-24T11:31:45.055Z,58.65
2024-01-24T11:34:16.707Z,58.71
2024-01-24T11:36:53.508Z,59.00
2024-01-24T11:39:29.820Z,58.57
2024-01-24T11:42:30.087Z,58.30
2024-01-24T11:45:17.437Z,58.80
2024-01-24T11:47:45.540Z,58.26
2024-01-24T11:50:12.954Z,58.31
2024-01-24T11:52:41.002Z,58.29
2024-01-24T11:55:08.466Z,56.90
2024-01-24T11:57:35.681Z,56.33
2024-01-24T12:00:03.413Z,56.35
2024-01-24T12:02:32.098Z,56.22
2024-01-24T12:04:59.253Z,56.34
2024-01-24T12:07:26.589Z,56.29
2024-01-24T12:09:54.426Z,56.54
2024-01-24T12:12:21.732Z,56.56
2024-01-24T12:14:49.480Z,57.55
2024-01-24T12:17:16.882Z,57.89
2024-01-24T12:19:47.000Z,57.31
2024-01-24T12:22:14.853Z,56.86
2024-01-24T12:24:42.067Z,56.74
2024-01-24T12:27:09.762Z,56.66
2024-01-24T12:29:37.506Z,56.88
2024-01-24T12:32:06.383Z,56.71
2024-01-24T12:34:34.099Z,56.42
2024-01-24T12:37:01.872Z,56.03
2024-01-24T12:39:31.516Z,56.52
2024-01-24T12:41:59.316Z,57.27
2024-01-24T12:44:26.760Z,57.18
2024-01-24T12:47:00.814Z,56.68
2024-01-24T12:49:28.655Z,56.42
2024-01-24T12:51:56.374Z,56.86
2024-01-24T12:54:23.430Z,56.69
2024-01-24T12:56:51.783Z,57.84
2024-01-24T12:59:19.200Z,58.37
2024-01-24T13:01:46.210Z,59.00
2024-01-24T13:04:13.255Z,59.34
2024-01-24T13:06:41.650Z,60.09
2024-01-24T13:09:09.578Z,61.06
2024-01-24T13:11:36.923Z,63.06
2024-01-24T13:14:03.955Z,62.43
2024-01-24T13:16:30.982Z,63.38
2024-01-24T13:18:58.279Z,63.12
2024-01-24T13:21:25.852Z,64.13
2024-01-24T13:23:52.821Z,64.94
2024-01-24T13:26:19.808Z,65.68
2024-01-24T13:28:46.779Z,64.86
2024-01-24T13:31:13.826Z,64.16
2024-01-24T13:33:42.254Z,64.15
2024-01-24T13:36:10.643Z,63.83
2024-01-24T13:38:37.874Z,63.83
2024-01-24T13:41:05.037Z,61.66
2024-01-24T13:43:32.413Z,61.54
2024-01-24T13:45:59.431Z,61.32
2024-01-24T13:48:27.108Z,60.17
2024-01-24T13:50:56.228Z,59.96
2024-01-24T13:53:23.307Z,59.96
2024-01-24T13:55:50.327Z,60.42
2024-01-24T13:58:17.973Z,61.66
2024-01-24T14:00:45.113Z,61.96
2024-01-24T14:03:12.267Z,62.65
2024-01-24T14:05:40.228Z,63.39
2024-01-24T14:08:08.098Z,64.21
2024-01-24T14:10:35.504Z,64.09
2024-01-24T14:13:02.646Z,65.48
2024-01-24T14:15:34.716Z,65.60
2024-01-24T14:18:04.527Z,67.97
2024-01-24T14:20:31.762Z,68.53
2024-01-24T14:22:58.685Z,68.75
2024-01-24T14:25:25.755Z,69.14
2024-01-24T14:27:52.875Z,69.19
2024-01-24T14:30:20.096Z,69.31
2024-01-24T14:32:47.143Z,69.55
2024-01-24T14:35:18.194Z,68.44
2024-01-24T14:37:45.495Z,68.60
2024-01-24T14:40:15.775Z,68.97
2024-01-24T14:42:43.435Z,69.51
2024-01-24T14:45:10.807Z,69.92
2024-01-24T14:47:38.188Z,69.79
2024-01-24T14:50:07.052Z,69.77
2024-01-24T14:52:34.550Z,69.80
2024-01-24T14:55:04.803Z,70.52
2024-01-24T14:57:33.472Z,71.37
2024-01-24T15:00:01.435Z,71.61
2024-01-24T15:02:28.602Z,71.86
2024-01-24T15:04:55.958Z,71.71
2024-01-24T15:07:23.931Z,71.67
2024-01-24T15:09:51.079Z,71.25
2024-01-24T15:12:17.955Z,70.83
2024-01-24T15:14:44.849Z,70.50
2024-01-24T15:17:11.716Z,70.15
2024-01-24T15:19:42.196Z,70.24
2024-01-24T15:22:17.313Z,69.95
2024-01-24T15:24:45.238Z,70.59
2024-01-24T15:27:12.473Z,70.33
2024-01-24T15:29:40.087Z,70.05
2024-01-24T15:32:07.102Z,69.79
2024-01-24T15:34:34.174Z,69.66
2024-01-24T15:37:01.288Z,69.90
2024-01-24T15:39:28.212Z,70.05
2024-01-24T15:42:00.887Z,69.77
2024-01-24T15:44:28.814Z,69.50
2024-01-24T15:46:58.530Z,70.08
2024-01-24T15:49:25.565Z,69.58
2024-01-24T15:51:52.620Z,69.63
2024-01-24T15:54:19.725Z,69.15
2024-01-24T15:56:47.489Z,68.97
2024-01-24T15:59:14.498Z,68.96
2024-01-24T16:01:48.772Z,69.13
2024-01-24T16:04:18.913Z,68.42
2024-01-24T16:06:46.306Z,68.65
2024-01-24T16:09:13.401Z,68.18
2024-01-24T16:11:40.569Z,67.97
2024-01-24T16:14:08.159Z,67.86
2024-01-24T16:16:36.068Z,68.11
2024-01-24T16:19:03.015Z,68.11
2024-01-24T16:21:29.924Z,68.81
2024-01-24T16:23:56.811Z,69.12
2024-01-24T16:26:23.677Z,69.98
2024-01-24T16:28:50.564Z,70.04
2024-01-24T16:31:18.052Z,70.59
2024-01-24T16:33:45.013Z,70.45
2024-01-24T16:36:12.565Z,70.80
2024-01-24T16:38:39.519Z,70.94
2024-01-24T16:41:07.628Z,71.12
2024-01-24T16:43:37.315Z,70.54
2024-01-24T16:46:06.282Z,71.02
2024-01-24T16:48:33.420Z,71.46
2024-01-24T16:51:00.701Z,71.90
2024-01-24T16:53:28.026Z,72.45
2024-01-24T16:55:54.940Z,72.44
2024-01-24T16:58:21.792Z,72.49
2024-01-24T17:00:48.779Z,72.37
2024-01-24T17:03:15.758Z,72.29
2024-01-24T17:05:42.769Z,72.63
2024-01-24T17:08:09.657Z,72.83
2024-01-24T17:10:36.519Z,73.15
2024-01-24T17:13:03.693Z,73.17
2024-01-24T17:15:31.207Z,74.03
2024-01-24T17:17:59.277Z,74.17
2024-01-24T17:20:26.268Z,74.51
2024-01-24T17:22:53.205Z,74.98
2024-01-24T17:25:21.757Z,75.63
2024-01-24T17:27:48.709Z,75.59
2024-01-24T17:30:17.334Z,75.52
2024-01-24T17:32:44.346Z,75.59
2024-01-24T17:35:11.338Z,75.95
2024-01-24T17:37:38.354Z,76.12
2024-01-24T17:40:06.381Z,77.08
2024-01-24T17:42:33.832Z,78.00
2024-01-24T17:45:00.883Z,78.60
2024-01-24T17:47:27.912Z,79.11
2024-01-24T17:49:54.965Z,79.80
2024-01-24T17:52:21.965Z,79.96
2024-01-24T17:54:49.090Z,80.19
2024-01-24T17:57:17.083Z,80.83
2024-01-24T17:59:44.132Z,80.59
2024-01-24T18:02:11.160Z,80.15
2024-01-24T18:04:38.089Z,80.13
2024-01-24T18:07:05.233Z,80.12
2024-01-24T18:09:32.823Z,79.57
2024-01-24T18:11:59.866Z,79.39
2024-01-24T18:14:26.804Z,79.02
2024-01-24T18:16:53.836Z,78.66
2024-01-24T18:19:20.826Z,78.50
2024-01-24T18:21:48.119Z,78.33
2024-01-24T18:24:15.015Z,78.24
2024-01-24T18:26:42.287Z,78.19
2024-01-24T18:29:09.237Z,78.02
2024-01-24T18:31:36.275Z,78.03
2024-01-24T18:34:04.576Z,78.17
2024-01-24T18:36:31.621Z,78.08
2024-01-24T18:38:58.525Z,78.08
2024-01-24T18:41:25.410Z,78.14
2024-01-24T18:43:54.171Z,78.02
2024-01-24T18:46:22.050Z,77.61
2024-01-24T18:48:49.558Z,77.24
2024-01-24T18:51:17.565Z,77.00
2024-01-24T18:53:45.402Z,76.61
2024-01-24T18:56:15.196Z,76.81
2024-01-24T18:58:42.263Z,76.19
2024-01-24T19:01:11.562Z,76.17
2024-01-24T19:03:39.064Z,75.93
2024-01-24T19:06:06.559Z,75.89
2024-01-24T19:08:35.486Z,75.69
2024-01-24T19:11:05.442Z,75.60
2024-01-24T19:13:34.709Z,75.23
2024-01-24T19:16:01.962Z,75.05
2024-01-24T19:18:30.225Z,74.89
2024-01-24T19:20:57.462Z,74.70
2024-01-24T19:23:24.941Z,74.32
2024-01-24T19:25:51.867Z,74.37
2024-01-24T19:28:18.931Z,74.58
2024-01-24T19:30:46.126Z,74.53
2024-01-24T19:33:13.298Z,74.46
2024-01-24T19:35:41.798Z,74.25
2024-01-24T19:38:08.660Z,74.12
2024-01-24T19:40:35.507Z,73.94
2024-01-24T19:43:02.527Z,73.72
2024-01-24T19:45:29.869Z,73.49
2024-01-24T19:47:57.167Z,73.77
2024-01-24T19:50:24.750Z,73.94
2024-01-24T19:52:52.388Z,73.96
2024-01-24T19:55:21.390Z,74.23
2024-01-24T19:57:48.317Z,74.18
2024-01-24T20:00:15.693Z,74.38
2024-01-24T20:02:42.752Z,74.53
2024-01-24T20:05:09.965Z,74.76
2024-01-24T20:07:37.004Z,74.63
2024-01-24T20:10:04.389Z,74.76
2024-01-24T20:12:31.461Z,74.84
2024-01-24T20:14:58.341Z,74.80
2024-01-24T20:17:26.011Z,74.55
2024-01-24T20:19:53.612Z,74.66
2024-01-24T20:22:20.559Z,74.60
2024-01-24T20:24:47.638Z,74.81
2024-01-24T20:27:14.701Z,74.80
2024-01-24T20:29:41.607Z,75.15
2024-01-24T20:32:08.636Z,75.17
2024-01-24T20:34:35.733Z,75.49
2024-01-24T20:37:03.231Z,75.57
2024-01-24T20:39:30.533Z,75.54
2024-01-24T20:41:58.210Z,75.45
2024-01-24T20:44:25.159Z,75.25
2024-01-24T20:46:52.040Z,74.89
2024-01-24T20:49:19.037Z,74.35
2024-01-24T20:51:48.977Z,74.33
2024-01-24T20:54:17.808Z,74.10
2024-01-24T20:56:45.297Z,73.78
2024-01-24T20:59:12.232Z,74.04
2024-01-24T21:01:39.372Z,73.83
2024-01-24T21:04:06.632Z,73.87
2024-01-24T21:06:33.840Z,73.61
2024-01-24T21:09:00.756Z,73.38
2024-01-24T21:11:27.714Z,73.23
2024-01-24T21:13:54.606Z,73.56
2024-01-24T21:16:21.492Z,73.51
2024-01-24T21:18:48.497Z,73.50
2024-01-24T21:21:16.110Z,73.30
2024-01-24T21:23:43.069Z,73.27
2024-01-24T21:26:10.002Z,73.02
2024-01-24T21:28:36.898Z,72.96
2024-01-24T21:31:04.005Z,73.05
2024-01-24T21:33:33.005Z,73.07
2024-01-24T21:36:00.562Z,72.95
2024-01-24T21:38:27.540Z,72.87
2024-01-24T21:40:54.553Z,72.97
2024-01-24T21:43:21.698Z,73.09
2024-01-24T21:45:48.608Z,73.12
2024-01-24T21:48:16.662Z,73.27
2024-01-24T21:50:44.665Z,73.26
2024-01-24T21:53:11.598Z,73.32
2024-01-24T21:55:38.631Z,73.44
2024-01-24T21:58:05.726Z,73.27
2024-01-24T22:00:32.891Z,73.47
2024-01-24T22:02:59.831Z,73.71
2024-01-24T22:05:26.932Z,73.53
2024-01-24T22:07:53.944Z,73.55
2024-01-24T22:10:20.974Z,73.73
2024-01-24T22:12:49.050Z,73.78
2024-01-24T22:15:17.508Z,73.81
2024-01-24T22:17:44.675Z,74.41
2024-01-24T22:20:12.024Z,74.51
2024-01-24T22:22:39.055Z,74.57
2024-01-24T22:25:08.443Z,74.61
2024-01-24T22:27:35.432Z,74.48
2024-01-24T22:30:06.020Z,74.34
2024-01-24T22:32:33.840Z,74.03
2024-01-24T22:35:06.215Z,74.24
2024-01-24T22:37:33.448Z,74.07
2024-01-24T22:40:00.536Z,74.02
2024-01-24T22:42:27.895Z,74.22
2024-01-24T22:44:54.825Z,74.24
2024-01-24T22:47:22.384Z,74.23
2024-01-24T22:49:49.512Z,74.33
2024-01-24T22:52:18.378Z,74.56
2024-01-24T22:54:45.414Z,74.27
2024-01-24T22:57:13.028Z,74.29
2024-01-24T22:59:39.916Z,74.44
2024-01-24T23:02:06.977Z,74.48
2024-01-24T23:04:34.243Z,74.43
2024-01-24T23:07:01.462Z,74.45
2024-01-24T23:09:28.622Z,74.62
2024-01-24T23:11:55.738Z,74.81
2024-01-24T23:14:22.649Z,74.88
2024-01-24T23:16:49.607Z,74.75
2024-01-24T23:19:17.034Z,74.78
2024-01-24T23:21:44.065Z,74.50
2024-01-24T23:24:11.192Z,74.47
2024-01-24T23:26:38.512Z,74.48
2024-01-24T23:29:05.900Z,74.35
2024-01-24T23:31:32.802Z,74.55
2024-01-24T23:34:00.035Z,74.93
2024-01-24T23:36:27.184Z,75.00
2024-01-24T23:38:54.514Z,74.93
2024-01-24T23:41:21.672Z,75.02
2024-01-24T23:43:48.566Z,75.24
2024-01-24T23:46:15.658Z,74.98
2024-01-24T23:48:43.152Z,75.08
2024-01-24T23:51:10.490Z,75.04
2024-01-24T23:53:37.591Z,74.77
2024-01-24T23:56:05.041Z,75.17
2024-01-24T23:58:32.221Z,75.14
